Time;durP1;ratioP1;P1;durP2;ratioP2;P2;SDS_P1;SDS_P2;PMS_P1;PMS_P2;Temp;Humidity;BMP_temperature;BMP_pressure;BME280_temperature;BME280_humidity;BME280_pressure;Samples;Min_cycle;Max_cycle;Signal;HPM_P1;HPM_P2
2022/06/09 00:01:07;;;;;;;42.88;23.77;;;;;;;17.32;86.25;100018.14;1688973;82;25801;-82
2022/06/09 00:03:44;;;;;;;33.10;20.30;;;;;;;17.30;86.51;100024.33;1716661;82;26087;-83
2022/06/09 00:06:14;;;;;;;44.27;30.15;;;;;;;17.26;86.72;100023.70;1734007;82;26590;-81
2022/06/09 00:08:44;;;;;;;38.73;27.95;;;;;;;17.21;86.97;100017.70;1725676;82;26180;-82
2022/06/09 00:11:14;;;;;;;;;;;;;;;17.16;86.98;100017.59;1729216;82;27544;-82
2022/06/09 00:13:41;;;;;;;24.80;17.42;;;;;;;17.13;87.30;100019.42;1720683;82;26436;-82
2022/06/09 00:16:13;;;;;;;22.70;15.83;;;;;;;17.09;87.42;100019.63;1700196;81;26396;-81
2022/06/09 00:18:40;;;;;;;14.80;13.30;;;;;;;17.10;87.56;100015.04;1737965;82;26175;-81
2022/06/09 00:21:07;;;;;;;13.98;11.70;;;;;;;17.10;87.74;100021.80;1739121;81;25813;-81
2022/06/09 00:23:34;;;;;;;17.25;11.43;;;;;;;17.10;87.83;100024.52;1738268;81;27620;-82
2022/06/09 00:26:01;;;;;;;12.37;10.60;;;;;;;17.11;87.94;100026.17;1749067;81;26002;-82
2022/06/09 00:28:28;;;;;;;11.18;9.80;;;;;;;17.09;88.02;100018.27;1701079;81;25972;-82
2022/06/09 00:30:54;;;;;;;11.60;10.48;;;;;;;17.10;88.15;100025.34;1688262;83;25837;-82
2022/06/09 00:33:21;;;;;;;12.37;10.78;;;;;;;17.13;88.31;100033.52;1680423;84;26617;-82
2022/06/09 00:35:49;;;;;;;12.75;11.40;;;;;;;17.15;88.45;100029.47;1736485;81;28356;-82
2022/06/09 00:38:15;;;;;;;10.98;9.88;;;;;;;17.18;88.64;100033.06;1716583;81;25914;-82
2022/06/09 00:40:42;;;;;;;11.33;10.13;;;;;;;17.20;88.81;100036.87;1686808;83;25845;-82
2022/06/09 00:43:08;;;;;;;13.45;10.98;;;;;;;17.21;88.85;100034.47;1706034;82;25899;-82
2022/06/09 00:45:50;;;;;;;11.33;10.23;;;;;;;17.24;88.95;100034.79;1724621;82;26033;-82
2022/06/09 00:48:24;;;;;;;12.53;11.22;;;;;;;17.26;89.01;100034.01;1723368;82;28143;-83
2022/06/09 00:51:13;;;;;;;11.75;10.48;;;;;;;17.29;89.22;100040.83;1706419;82;26125;-82
2022/06/09 00:53:42;;;;;;;10.98;9.98;;;;;;;17.31;89.34;100038.70;1693579;82;25717;-83
2022/06/09 00:56:12;;;;;;;11.50;10.32;;;;;;;17.31;89.48;100040.87;1680320;83;26680;-83
2022/06/09 00:58:43;;;;;;;12.58;11.35;;;;;;;17.32;89.52;100039.80;1702136;82;25868;-82
2022/06/09 01:01:13;;;;;;;13.35;9.93;;;;;;;17.35;89.67;100035.27;1700468;82;27478;-82
2022/06/09 01:03:54;;;;;;;13.18;11.48;;;;;;;17.37;89.73;100035.84;1670746;84;26242;-82
2022/06/09 01:06:25;;;;;;;13.10;11.68;;;;;;;17.39;89.83;100028.81;1694466;83;25982;-82
2022/06/09 01:09:06;;;;;;;11.95;10.85;;;;;;;17.40;89.88;100038.07;1697540;84;26573;-82
2022/06/09 01:11:34;;;;;;;12.63;11.43;;;;;;;17.41;89.97;100042.40;1680515;84;25765;-81
2022/06/09 01:14:01;;;;;;;12.85;11.43;;;;;;;17.40;90.06;100039.95;1693509;84;27469;-83
2022/06/09 01:16:51;;;;;;;14.93;12.30;;;;;;;17.39;90.40;100043.70;1697109;83;26518;-82
2022/06/09 01:19:53;;;;;;;13.90;12.00;;;;;;;17.40;90.50;100051.61;1686358;84;26786;-82
2022/06/09 01:22:43;;;;;;;12.65;11.18;;;;;;;17.39;90.76;100043.18;1685983;83;25858;-82
2022/06/09 01:25:32;;;;;;;14.45;12.70;;;;;;;17.41;90.89;100047.81;1715313;82;26283;-82
2022/06/09 01:28:25;;;;;;;13.53;11.80;;;;;;;17.40;91.10;100052.95;1709108;82;27542;-82
2022/06/09 01:30:59;;;;;;;15.80;12.85;;;;;;;17.40;91.27;100040.77;1655040;83;26139;-81
2022/06/09 01:33:43;;;;;;;13.08;11.88;;;;;;;17.45;91.48;100042.75;1696160;82;25767;-81
2022/06/09 01:36:15;;;;;;;13.78;11.48;;;;;;;17.46;91.56;100037.09;1688900;83;26642;-82
2022/06/09 01:38:52;;;;;;;13.20;11.80;;;;;;;17.47;91.58;100029.79;1695411;82;25475;-82
2022/06/09 01:41:22;;;;;;;13.98;12.58;;;;;;;17.45;91.46;100026.51;1683363;83;27485;-81
2022/06/09 01:43:49;;;;;;;14.15;12.75;;;;;;;17.37;91.24;100030.42;1697631;82;25813;-82
2022/06/09 01:46:26;;;;;;;13.40;12.10;;;;;;;17.35;91.38;100027.66;1703456;82;25733;-83
2022/06/09 01:48:57;;;;;;;13.65;12.25;;;;;;;17.37;91.51;100018.77;1707086;83;25798;-83
2022/06/09 01:51:25;;;;;;;;;;;;;;;17.37;91.52;100018.77;1688294;83;25370;-82
2022/06/09 01:53:59;;;;;;;10.25;9.25;;;;;;;17.34;91.37;100020.06;1694525;83;28270;-83
2022/06/09 01:56:39;;;;;;;9.00;8.10;;;;;;;17.25;91.15;100009.38;1682804;83;25811;-82
2022/06/09 01:59:19;;;;;;;8.55;7.85;;;;;;;17.18;90.76;100003.81;1684635;83;25818;-82
2022/06/09 02:01:57;;;;;;;8.50;7.45;;;;;;;17.12;90.81;100004.27;1679704;83;26526;-83
2022/06/09 02:04:31;;;;;;;10.20;9.20;;;;;;;17.05;90.81;99999.53;1685957;83;26105;-83
2022/06/09 02:07:04;;;;;;;11.68;10.45;;;;;;;17.03;91.07;99994.89;1677499;83;27484;-81
2022/06/09 02:09:34;;;;;;;11.65;10.55;;;;;;;17.02;91.30;99988.38;1677242;83;26694;-83
2022/06/09 02:12:10;;;;;;;11.68;10.58;;;;;;;17.02;91.52;99989.73;1677788;83;25921;-82
2022/06/09 02:14:38;;;;;;;13.53;12.28;;;;;;;17.03;91.63;99994.07;1684604;83;25946;-83
2022/06/09 02:17:07;;;;;;;16.97;13.00;;;;;;;17.02;91.68;99999.20;1672318;83;26291;-83
2022/06/09 02:19:36;;;;;;;14.55;13.18;;;;;;;17.04;92.04;100004.67;1685613;83;28258;-82
2022/06/09 02:22:05;;;;;;;15.23;13.62;;;;;;;17.08;92.21;100001.77;1687203;83;26392;-82
2022/06/09 02:24:32;;;;;;;14.70;13.15;;;;;;;17.11;92.29;100002.61;1689790;83;25811;-82
2022/06/09 02:27:00;;;;;;;14.73;13.32;;;;;;;17.15;92.36;100001.61;1658108;84;25897;-83
2022/06/09 02:29:27;;;;;;;15.05;13.32;;;;;;;17.17;92.41;100001.63;1712840;82;25805;-82
2022/06/09 02:31:54;;;;;;;15.00;13.62;;;;;;;17.18;92.36;99995.70;1666526;84;28320;-84
2022/06/09 02:34:21;;;;;;;14.78;13.28;;;;;;;17.19;92.49;100002.23;1692541;83;25863;-82
2022/06/09 02:36:47;;;;;;;17.62;15.55;;;;;;;17.22;92.61;99988.72;1698774;82;25817;-82
2022/06/09 02:39:14;;;;;;;16.80;15.20;;;;;;;17.20;93.04;99978.16;1732437;82;25935;-83
2022/06/09 02:41:40;;;;;;;17.35;15.48;;;;;;;17.18;93.15;99980.28;1661048;84;26029;-82
2022/06/09 02:44:07;;;;;;;15.55;14.13;;;;;;;17.16;93.12;99981.06;1708595;82;27462;-82
2022/06/09 02:46:33;;;;;;;16.05;14.35;;;;;;;17.16;93.33;99979.70;1715246;82;25840;-83
2022/06/09 02:49:00;;;;;;;16.65;14.98;;;;;;;17.17;93.42;99979.98;1710548;82;25898;-83
2022/06/09 02:51:31;;;;;;;18.98;16.50;;;;;;;17.18;93.65;99980.81;1704583;82;26008;-81
2022/06/09 02:54:02;;;;;;;17.82;16.02;;;;;;;17.17;93.60;99995.42;1717314;82;25944;-83
2022/06/09 02:56:30;;;;;;;18.10;16.30;;;;;;;17.19;93.69;99994.64;1709264;82;27722;-82
2022/06/09 02:58:57;;;;;;;17.15;15.48;;;;;;;17.22;93.85;99989.55;1710168;82;25467;-83
2022/06/09 03:01:25;;;;;;;17.00;15.32;;;;;;;17.24;93.88;99991.48;1711808;82;26083;-82
2022/06/09 03:03:51;;;;;;;17.20;15.40;;;;;;;17.26;93.87;99989.88;1717264;82;25769;-82
2022/06/09 03:06:17;;;;;;;16.67;15.08;;;;;;;17.27;93.97;99991.53;1687146;83;26310;-83
2022/06/09 03:08:44;;;;;;;16.93;15.23;;;;;;;17.31;94.03;99996.73;1717700;82;27445;-81
2022/06/09 03:11:10;;;;;;;16.65;15.05;;;;;;;17.34;94.19;99989.49;1702689;82;25955;-83
2022/06/09 03:13:40;;;;;;;17.45;15.40;;;;;;;17.34;94.10;99979.45;1725138;82;25952;-83
2022/06/09 03:16:08;;;;;;;16.57;14.90;;;;;;;17.31;94.00;99977.27;1685059;83;26567;-82
2022/06/09 03:18:35;;;;;;;17.42;15.72;;;;;;;17.28;94.09;99981.00;1700121;82;26151;-82
2022/06/09 03:21:02;;;;;;;15.40;13.90;;;;;;;17.27;94.01;99978.00;1720641;82;27669;-82
2022/06/09 03:23:29;;;;;;;17.05;15.30;;;;;;;17.26;94.05;99985.29;1716114;82;26004;-82
2022/06/09 03:25:55;;;;;;;16.82;15.13;;;;;;;17.24;93.92;99984.71;1725260;82;25852;-83
2022/06/09 03:28:22;;;;;;;16.35;14.65;;;;;;;17.27;94.10;99978.82;1691392;82;26553;-83
2022/06/09 03:30:48;;;;;;;16.67;15.08;;;;;;;17.31;94.21;99984.03;1685922;83;25803;-83
2022/06/09 03:33:14;;;;;;;17.32;15.48;;;;;;;17.32;94.10;99984.86;1686103;83;27458;-82
2022/06/09 03:35:41;;;;;;;16.02;14.43;;;;;;;17.33;94.12;99987.84;1696560;83;26444;-83
2022/06/09 03:38:07;;;;;;;21.37;18.25;;;;;;;17.29;94.05;99979.39;1705606;82;26376;-83
2022/06/09 03:40:34;;;;;;;19.07;17.07;;;;;;;17.29;94.43;99968.57;1708167;82;25856;-82
2022/06/09 03:43:04;;;;;;;20.88;18.73;;;;;;;17.31;94.49;99972.38;1700688;83;25816;-82
2022/06/09 03:45:31;;;;;;;20.32;18.25;;;;;;;17.31;94.67;99967.78;1718309;82;26982;-82
2022/06/09 03:47:58;;;;;;;21.17;19.05;;;;;;;17.29;94.68;99964.51;1713979;82;25951;-83
2022/06/09 03:50:28;;;;;;;21.05;18.73;;;;;;;17.28;94.74;99960.14;1686940;83;25474;-82
2022/06/09 03:52:55;;;;;;;21.20;18.93;;;;;;;17.27;94.91;99959.88;1715125;82;25797;-82
2022/06/09 03:55:22;;;;;;;22.85;20.48;;;;;;;17.26;95.18;99957.39;1704317;82;25918;-83
2022/06/09 03:57:49;;;;;;;19.67;17.67;;;;;;;17.25;95.60;99948.47;1721705;82;28352;-82
2022/06/09 04:00:20;;;;;;;21.00;18.70;;;;;;;17.24;96.01;99937.87;1715898;82;26318;-83
2022/06/09 04:02:46;;;;;;;22.65;19.37;;;;;;;17.24;96.34;99927.05;1721082;82;26191;-83
2022/06/09 04:05:13;;;;;;;21.70;19.48;;;;;;;17.21;96.82;99927.03;1724540;82;26342;-82
2022/06/09 04:07:41;;;;;;;20.92;18.75;;;;;;;17.21;97.10;99931.61;1722487;82;25875;-82
2022/06/09 04:10:17;;;;;;;21.52;18.23;;;;;;;17.17;97.51;99933.97;1721596;82;28326;-82
2022/06/09 04:12:44;;;;;;;25.00;21.27;;;;;;;17.16;97.83;99932.87;1713415;82;25912;-81
2022/06/09 04:15:11;;;;;;;22.10;19.73;;;;;;;17.17;98.19;99939.38;1707806;82;25912;-82
2022/06/09 04:17:37;;;;;;;23.65;21.15;;;;;;;17.20;98.42;99934.02;1677469;83;26590;-81
2022/06/09 04:20:05;;;;;;;25.00;22.32;;;;;;;17.21;98.82;99932.97;1708341;82;25999;-83
2022/06/09 04:22:33;;;;;;;24.67;21.95;;;;;;;17.23;99.18;99934.37;1703556;82;27469;-82
2022/06/09 04:25:00;;;;;;;24.82;22.20;;;;;;;17.24;99.13;99940.05;1705815;82;26214;-82
2022/06/09 04:27:26;;;;;;;25.50;22.27;;;;;;;17.27;99.35;99936.86;1708531;82;25861;-82
2022/06/09 04:29:52;;;;;;;24.67;21.87;;;;;;;17.32;99.41;99944.25;1721902;82;25872;-82
2022/06/09 04:32:19;;;;;;;26.40;23.70;;;;;;;17.35;99.50;99945.09;1708789;82;25957;-82
2022/06/09 04:34:45;;;;;;;27.07;24.20;;;;;;;17.43;99.60;99940.09;1713205;82;27466;-82
2022/06/09 04:37:11;;;;;;;27.02;24.25;;;;;;;17.55;99.92;99948.16;1714487;82;25977;-82
2022/06/09 04:39:38;;;;;;;26.93;24.15;;;;;;;17.67;100.00;99938.05;1694562;83;25901;-83
2022/06/09 04:42:04;;;;;;;26.93;24.05;;;;;;;17.78;100.00;99936.30;1706828;82;25824;-82
2022/06/09 04:44:30;;;;;;;26.90;23.98;;;;;;;17.88;100.00;99935.11;1691163;83;25880;-81
2022/06/09 04:46:57;;;;;;;25.77;22.93;;;;;;;17.97;100.00;99938.47;1690816;83;27511;-82
2022/06/09 04:49:23;;;;;;;25.02;22.50;;;;;;;18.06;100.00;99940.22;1706719;82;26589;-81
2022/06/09 04:51:49;;;;;;;27.05;24.25;;;;;;;18.15;100.00;99954.98;1711477;82;26394;-82
2022/06/09 04:54:16;;;;;;;26.60;23.47;;;;;;;18.22;99.92;99965.11;1722327;82;26013;-82
2022/06/09 04:56:42;;;;;;;27.02;23.95;;;;;;;18.33;100.00;99972.27;1705447;82;25876;-82
2022/06/09 04:59:08;;;;;;;27.00;24.12;;;;;;;18.43;100.00;99967.80;1684335;83;28270;-82
2022/06/09 05:01:34;;;;;;;27.52;24.65;;;;;;;18.55;99.93;99966.88;1711392;82;26459;-81
2022/06/09 05:04:01;;;;;;;25.97;23.35;;;;;;;18.63;99.71;99950.97;1719200;82;26043;-81
2022/06/09 05:06:29;;;;;;;27.17;24.35;;;;;;;18.72;100.00;99946.73;1724761;82;26523;-81
2022/06/09 05:08:56;;;;;;;26.75;24.00;;;;;;;18.79;99.73;99946.53;1700303;82;25812;-81
2022/06/09 05:11:25;;;;;;;24.82;22.20;;;;;;;18.89;99.94;99951.52;1700831;82;27586;-81
2022/06/09 05:13:52;;;;;;;25.17;22.50;;;;;;;18.98;99.83;99949.16;1712312;82;25963;-82
2022/06/09 05:16:19;;;;;;;23.55;21.25;;;;;;;19.09;99.50;99953.62;1702689;82;25418;-81
2022/06/09 05:18:45;;;;;;;25.17;22.60;;;;;;;19.17;99.05;99958.57;1711895;82;26566;-82
2022/06/09 05:21:12;;;;;;;26.17;23.55;;;;;;;19.25;98.96;99959.45;1712637;82;26393;-82
2022/06/09 05:23:38;;;;;;;25.45;22.93;;;;;;;19.34;98.74;99967.44;1725742;82;27436;-81
2022/06/09 05:26:07;;;;;;;24.90;22.40;;;;;;;19.42;98.68;99971.03;1718819;82;26679;-81
2022/06/09 05:28:34;;;;;;;24.67;22.20;;;;;;;19.49;98.68;99969.45;1695579;83;25964;-81
2022/06/09 05:31:01;;;;;;;23.25;20.97;;;;;;;19.59;98.28;99974.42;1707020;82;26507;-83
2022/06/09 05:33:28;;;;;;;26.02;23.45;;;;;;;19.69;98.48;99969.09;1719887;82;25947;-82
2022/06/09 05:35:55;;;;;;;28.30;23.00;;;;;;;19.81;98.24;99967.52;1698812;82;27515;-82
2022/06/09 05:46:40;;;;;;;25.82;22.17;;;;;;;20.22;98.36;99976.22;1683445;82;25804;-82
2022/06/09 05:49:09;;;;;;;23.67;21.05;;;;;;;20.36;97.36;99984.72;1678670;83;26092;-81
2022/06/09 05:51:36;;;;;;;21.80;19.70;;;;;;;20.43;97.23;100005.15;1665220;84;25987;-82
2022/06/09 05:54:04;;;;;;;23.02;20.72;;;;;;;20.51;97.23;100014.69;1712492;82;25833;-82
2022/06/09 05:56:30;;;;;;;25.88;22.07;;;;;;;20.57;96.77;100009.57;1700356;82;26733;-82
2022/06/09 05:58:57;;;;;;;24.55;21.52;;;;;;;20.63;96.92;99997.08;1699072;82;25782;-82
2022/06/09 06:01:23;;;;;;;25.15;22.58;;;;;;;20.72;96.82;99997.38;1704705;82;27453;-82
2022/06/09 06:03:49;;;;;;;25.60;22.85;;;;;;;20.76;96.04;100023.77;1704545;84;25833;-82
2022/06/09 06:06:34;;;;;;;25.25;22.10;;;;;;;20.75;95.38;100031.67;1705121;84;25772;-83
2022/06/09 06:09:14;;;;;;;25.68;23.02;;;;;;;20.69;94.78;100023.76;1704122;83;26507;-82
2022/06/09 06:11:42;;;;;;;26.85;24.05;;;;;;;20.66;94.68;100031.08;1705248;83;25880;-82
2022/06/09 06:14:10;;;;;;;24.87;22.52;;;;;;;20.65;94.91;100034.91;1704743;84;27463;-82
2022/06/09 06:16:38;;;;;;;27.95;25.00;;;;;;;20.64;94.82;100041.41;1705018;83;25780;-82
2022/06/09 06:19:07;;;;;;;28.23;24.80;;;;;;;20.65;94.67;100045.25;1704787;83;26407;-81
2022/06/09 06:21:36;;;;;;;27.87;25.08;;;;;;;20.64;94.58;100049.58;1705104;83;25808;-82
2022/06/09 06:24:06;;;;;;;28.12;25.00;;;;;;;20.63;94.43;100043.87;1704253;83;25860;-81
2022/06/09 06:26:34;;;;;;;29.82;26.50;;;;;;;20.60;94.67;100043.03;1704995;83;27442;-81
2022/06/09 06:29:02;;;;;;;29.52;26.33;;;;;;;20.58;94.63;100041.13;1714859;83;26001;-82
2022/06/09 06:31:28;;;;;;;28.20;25.25;;;;;;;20.61;94.70;100035.16;1696156;82;25876;-82
2022/06/09 06:33:54;;;;;;;28.98;25.70;;;;;;;20.67;94.87;100028.66;1719227;82;25773;-82
2022/06/09 06:36:20;;;;;;;30.15;26.40;;;;;;;20.72;95.07;100015.08;1703052;82;25794;-82
2022/06/09 06:38:49;;;;;;;29.23;25.77;;;;;;;20.78;94.56;100010.45;1727058;82;28323;-82
2022/06/09 06:41:17;;;;;;;29.20;24.77;;;;;;;20.82;94.31;100016.45;1664732;85;26178;-83
2022/06/09 06:43:46;;;;;;;27.73;25.00;;;;;;;20.83;93.54;100015.92;1679558;84;26557;-83
2022/06/09 06:46:12;;;;;;;29.40;26.27;;;;;;;20.84;93.69;100025.17;1695758;82;25772;-82
2022/06/09 06:48:39;;;;;;;29.67;26.50;;;;;;;20.83;93.25;100020.00;1727069;82;26110;-81
2022/06/09 06:51:08;;;;;;;30.00;27.00;;;;;;;20.81;92.61;100016.16;1706286;82;27471;-82
2022/06/09 06:53:36;;;;;;;27.40;24.70;;;;;;;20.83;92.85;100013.99;1686982;84;25836;-82
2022/06/09 06:56:03;;;;;;;29.25;26.33;;;;;;;20.85;92.81;100006.94;1710029;82;25803;-82
2022/06/09 06:58:30;;;;;;;29.23;25.65;;;;;;;20.88;92.86;100007.75;1708447;82;26697;-82
2022/06/09 07:00:59;;;;;;;29.48;26.40;;;;;;;20.88;93.10;100006.39;1697538;82;25775;-82
2022/06/09 07:03:26;;;;;;;30.35;27.17;;;;;;;20.91;93.15;99998.52;1723678;82;28311;-82
2022/06/09 07:05:53;;;;;;;26.40;23.77;;;;;;;20.90;93.02;100002.85;1712117;82;26467;-82
2022/06/09 07:08:19;;;;;;;28.87;25.90;;;;;;;20.94;93.41;100009.39;1721021;82;25763;-83
2022/06/09 07:10:45;;;;;;;28.38;25.45;;;;;;;20.97;93.15;100006.97;1707221;82;25917;-82
2022/06/09 07:13:13;;;;;;;28.42;25.43;;;;;;;21.04;93.58;100002.09;1708954;82;25768;-82
2022/06/09 07:15:39;;;;;;;30.27;27.27;;;;;;;21.13;93.28;99997.77;1709255;82;27481;-82
2022/06/09 07:18:06;;;;;;;30.95;27.65;;;;;;;21.16;92.56;99992.33;1693023;83;25371;-82
2022/06/09 07:20:33;;;;;;;27.82;24.95;;;;;;;21.16;92.58;99997.77;1713046;82;25779;-80
2022/06/09 07:22:59;;;;;;;28.05;25.17;;;;;;;21.18;92.38;99999.67;1708206;83;25762;-81
2022/06/09 07:25:26;;;;;;;27.60;24.80;;;;;;;21.20;92.60;99995.60;1684975;83;26040;-82
2022/06/09 07:27:54;;;;;;;28.17;25.20;;;;;;;21.27;91.83;99999.42;1670891;84;27446;-81
2022/06/09 07:30:23;;;;;;;28.27;25.48;;;;;;;21.35;91.86;99987.98;1719468;82;25839;-82
2022/06/09 07:32:51;;;;;;;27.32;24.57;;;;;;;21.42;91.50;99979.00;1721026;82;26190;-82
2022/06/09 07:35:22;;;;;;;25.30;22.85;;;;;;;21.53;91.57;99986.63;1685349;83;26506;-83
2022/06/09 07:37:49;;;;;;;23.50;21.10;;;;;;;21.56;91.45;99984.16;1709088;82;25829;-82
2022/06/09 07:40:15;;;;;;;24.70;22.10;;;;;;;21.65;92.11;99992.61;1673708;84;28296;-82
2022/06/09 07:42:42;;;;;;;23.80;21.35;;;;;;;21.70;91.76;99992.61;1727172;82;25820;-82
2022/06/09 07:45:11;;;;;;;24.72;22.05;;;;;;;21.74;91.60;99990.97;1694576;83;25965;-80
2022/06/09 07:47:38;;;;;;;26.48;21.93;;;;;;;21.77;91.47;100002.14;1705877;82;25778;-81
2022/06/09 07:50:08;;;;;;;24.20;21.87;;;;;;;21.86;91.53;99994.25;1722183;82;25826;-81
2022/06/09 07:52:35;;;;;;;24.40;22.00;;;;;;;21.86;90.83;99998.34;1701360;82;27483;-82
2022/06/09 07:55:02;;;;;;;24.50;22.20;;;;;;;21.80;90.42;100005.69;1718276;82;25786;-82
2022/06/09 07:57:28;;;;;;;25.70;23.12;;;;;;;21.78;90.09;100006.52;1682656;84;25840;-82
2022/06/09 07:59:56;;;;;;;27.35;24.45;;;;;;;21.75;90.19;100007.05;1709980;82;26701;-81
2022/06/09 08:02:22;;;;;;;27.73;24.85;;;;;;;21.74;90.28;100005.42;1699788;82;26348;-81
2022/06/09 08:04:48;;;;;;;27.25;23.05;;;;;;;21.73;89.96;100007.05;1700573;82;27457;-81
2022/06/09 08:07:15;;;;;;;25.52;22.87;;;;;;;21.72;89.46;100010.88;1717767;82;25872;-81
2022/06/09 08:09:41;;;;;;;26.17;23.55;;;;;;;21.74;89.62;99998.61;1724595;82;25395;-82
2022/06/09 08:12:08;;;;;;;27.45;24.50;;;;;;;21.84;90.01;100001.35;1705033;82;25815;-82
2022/06/09 08:14:34;;;;;;;27.17;24.05;;;;;;;21.97;90.42;100000.78;1710777;82;25791;-81
2022/06/09 08:17:00;;;;;;;25.30;22.73;;;;;;;22.05;90.15;100002.95;1720204;82;27513;-81
2022/06/09 08:19:27;;;;;;;27.45;21.95;;;;;;;22.20;90.33;99996.09;1680019;83;25863;-81
2022/06/09 08:21:53;;;;;;;23.52;20.85;;;;;;;22.31;89.85;99999.60;1717027;82;26593;-81
2022/06/09 08:24:20;;;;;;;22.80;20.37;;;;;;;22.36;88.77;100008.33;1703764;82;26581;-81
2022/06/09 08:26:47;;;;;;;21.30;19.10;;;;;;;22.37;88.19;100009.41;1698919;82;26570;-82
2022/06/09 08:29:13;;;;;;;20.65;18.55;;;;;;;22.42;88.43;100017.58;1725074;82;27489;-81
2022/06/09 08:31:41;;;;;;;18.92;17.12;;;;;;;22.46;88.24;100021.39;1694864;83;25911;-81
2022/06/09 08:34:09;;;;;;;19.05;17.05;;;;;;;22.49;87.68;100030.94;1705441;82;25967;-81
2022/06/09 08:36:36;;;;;;;20.80;17.50;;;;;;;22.52;87.70;100032.55;1702898;82;25808;-82
2022/06/09 08:39:02;;;;;;;18.57;16.70;;;;;;;22.50;86.96;100023.82;1693358;82;25879;-82
2022/06/09 08:41:43;;;;;;;21.37;19.02;;;;;;;22.47;86.85;100029.03;1691591;82;27477;-81
2022/06/09 08:44:24;;;;;;;19.12;17.32;;;;;;;22.44;87.11;100035.86;1648156;82;26579;-82
2022/06/09 08:47:17;;;;;;;21.40;18.80;;;;;;;22.44;87.43;100047.31;1711208;82;32639;-81
2022/06/09 08:49:58;;;;;;;22.58;20.35;;;;;;;22.44;88.26;100050.87;1705649;82;26608;-81
2022/06/09 08:52:45;;;;;;;24.85;22.02;;;;;;;22.41;88.07;100047.89;1724216;82;25767;-82
2022/06/09 08:55:32;;;;;;;22.70;20.55;;;;;;;22.39;88.06;100054.17;1723567;82;27167;-81
2022/06/09 08:58:21;;;;;;;23.25;21.00;;;;;;;22.37;88.06;100053.64;1724317;82;25913;-81
2022/06/09 09:01:17;;;;;;;20.57;18.55;;;;;;;22.35;88.27;100051.73;1686747;83;25901;-82
2022/06/09 09:03:50;;;;;;;20.80;18.70;;;;;;;22.33;88.38;100050.63;1683432;84;26655;-80
2022/06/09 09:06:49;;;;;;;20.62;18.52;;;;;;;22.32;88.36;100055.83;1701453;82;26009;-82
2022/06/09 09:09:24;;;;;;;20.35;18.32;;;;;;;22.26;88.11;100054.20;1689960;82;27534;-81
2022/06/09 09:12:12;;;;;;;19.42;17.55;;;;;;;22.25;89.13;100050.66;1688902;82;25952;-81
2022/06/09 09:14:44;;;;;;;14.83;13.53;;;;;;;22.22;88.43;100038.91;1709277;82;25795;-81
2022/06/09 09:17:37;;;;;;;13.25;11.95;;;;;;;22.21;87.88;100034.57;1723548;82;25832;-81
2022/06/09 09:20:20;;;;;;;11.60;10.60;;;;;;;22.26;87.17;100038.62;1718240;82;26566;-80
2022/06/09 09:23:13;;;;;;;10.48;9.50;;;;;;;22.25;86.14;100028.00;1712449;82;27481;-82
2022/06/09 09:26:03;;;;;;;10.38;9.35;;;;;;;22.34;86.25;100030.98;1700795;82;25812;-81
2022/06/09 09:28:44;;;;;;;11.43;10.32;;;;;;;22.45;84.44;100024.41;1706188;82;25372;-80
2022/06/09 09:31:36;;;;;;;11.35;10.28;;;;;;;22.55;84.80;100025.18;1692113;82;25848;-81
2022/06/09 09:34:04;;;;;;;10.98;9.98;;;;;;;22.56;84.45;100013.72;1718215;82;25855;-81
2022/06/09 09:36:38;;;;;;;11.68;10.58;;;;;;;22.58;84.49;100021.08;1693555;82;27626;-80
2022/06/09 09:39:30;;;;;;;10.88;9.78;;;;;;;22.56;83.75;100012.36;1697666;82;25860;-81
2022/06/09 09:42:14;;;;;;;11.57;10.48;;;;;;;22.51;83.12;100016.46;1702626;82;25852;-80
2022/06/09 09:44:43;;;;;;;12.37;10.98;;;;;;;22.44;83.45;100010.47;1630212;84;26045;-81
2022/06/09 09:47:13;;;;;;;12.20;11.00;;;;;;;22.39;83.53;100018.12;1676162;84;25973;-80
2022/06/09 09:49:45;;;;;;;11.12;10.00;;;;;;;22.37;83.98;100014.86;1691750;83;28282;-81
2022/06/09 09:52:37;;;;;;;11.10;10.10;;;;;;;22.40;84.26;100024.41;1700373;83;25834;-81
2022/06/09 09:55:09;;;;;;;11.78;10.70;;;;;;;22.47;84.88;100017.58;1660818;84;26150;-82
2022/06/09 09:57:35;;;;;;;11.30;10.20;;;;;;;22.59;85.29;100014.54;1714460;82;26065;-82
2022/06/09 10:00:07;;;;;;;11.48;10.30;;;;;;;22.69;85.04;100015.88;1724604;82;25824;-82
2022/06/09 10:08:39;;;;;;;11.65;10.48;;;;;;;22.91;82.71;100008.10;1722293;82;25786;-82
2022/06/09 10:14:03;;;;;;;10.38;9.15;;;;;;;23.16;83.89;99998.38;1698173;82;25974;-80
2022/06/09 10:16:33;;;;;;;10.93;9.75;;;;;;;23.37;83.51;99998.56;1655730;84;27476;-82
2022/06/09 10:19:04;;;;;;;13.17;11.97;;;;;;;23.57;82.55;100003.84;1708363;82;25788;-80
2022/06/09 10:21:48;;;;;;;12.85;11.65;;;;;;;23.72;81.64;100002.89;1700899;82;26868;-81
2022/06/09 10:24:19;;;;;;;13.25;11.95;;;;;;;23.71;81.52;99998.00;1722899;82;27733;-81
2022/06/09 10:26:47;;;;;;;12.85;11.75;;;;;;;23.66;80.92;100017.17;1710589;82;26267;-79
2022/06/09 10:29:27;;;;;;;13.48;11.12;;;;;;;23.64;80.40;100024.03;1724144;82;27459;-81
2022/06/09 10:31:59;;;;;;;12.45;11.05;;;;;;;23.65;81.75;100025.09;1694937;83;25990;-80
2022/06/09 10:35:00;;;;;;;13.48;12.07;;;;;;;23.75;80.93;100025.03;1681595;82;25992;-81
2022/06/09 10:37:58;;;;;;;12.18;11.08;;;;;;;23.80;81.56;100017.88;1721434;82;25795;-81
2022/06/09 10:40:53;;;;;;;11.20;10.10;;;;;;;23.86;80.37;100016.19;1678949;83;26518;-81
2022/06/09 10:43:34;;;;;;;12.82;11.63;;;;;;;23.84;80.42;100015.66;1693774;82;27486;-81
2022/06/09 10:46:24;;;;;;;;;;;;;;;23.78;80.02;100025.56;1699030;82;25836;-80
2022/06/09 10:55:35;;;;;;;12.03;10.93;;;;;;;23.67;81.01;100015.27;1694533;82;25819;-81
2022/06/09 10:58:26;;;;;;;11.08;10.10;;;;;;;23.61;80.15;99995.88;1687941;83;27527;-82
2022/06/09 11:00:52;;;;;;;12.93;11.63;;;;;;;23.52;80.29;100000.35;1721891;82;33590;-81
2022/06/09 11:03:29;;;;;;;11.90;10.72;;;;;;;23.38;79.91;100004.27;1692225;82;25348;-80
2022/06/09 11:06:23;;;;;;;11.97;10.82;;;;;;;23.25;80.36;99993.95;1709006;82;25815;-82
2022/06/09 11:08:58;;;;;;;12.15;10.95;;;;;;;23.18;81.00;99987.98;1720069;82;25340;-81
2022/06/09 11:11:57;;;;;;;12.05;10.95;;;;;;;23.14;81.83;99990.23;1723527;82;27445;-81
2022/06/09 11:15:02;;;;;;;12.28;11.18;;;;;;;23.10;81.83;99983.67;1707926;82;25823;-81
2022/06/09 11:18:03;;;;;;;11.53;10.53;;;;;;;23.11;82.86;100003.08;1700593;82;25336;-81
2022/06/09 11:20:54;;;;;;;13.13;10.97;;;;;;;23.13;82.39;100013.17;1728347;82;25920;-81
2022/06/09 11:23:44;;;;;;;11.65;10.65;;;;;;;23.18;82.65;100013.14;1702475;82;25874;-79
2022/06/09 11:26:32;;;;;;;15.53;11.97;;;;;;;23.17;82.60;100014.23;1678194;83;27473;-81
2022/06/09 11:29:22;;;;;;;11.53;10.50;;;;;;;23.15;82.99;100010.42;1698219;82;25807;-80
2022/06/09 11:32:25;;;;;;;13.00;10.93;;;;;;;23.18;82.98;100010.41;1686252;82;26538;-79
2022/06/09 11:35:00;;;;;;;11.55;10.48;;;;;;;23.20;83.22;100005.48;1706733;82;26591;-80
2022/06/09 11:37:53;;;;;;;11.35;10.10;;;;;;;23.20;82.70;100002.20;1693009;83;25834;-81
2022/06/09 11:40:52;;;;;;;14.85;10.80;;;;;;;23.23;82.43;99992.59;1698723;83;27538;-80
2022/06/09 11:43:48;;;;;;;12.50;11.15;;;;;;;23.22;82.79;99984.97;1697582;83;26620;-80
2022/06/09 11:46:32;;;;;;;11.60;10.60;;;;;;;23.26;82.93;99979.75;1684010;83;25816;-81
2022/06/09 11:49:03;;;;;;;12.85;11.48;;;;;;;23.27;82.91;99971.25;1679618;84;26587;-81
2022/06/09 11:51:33;;;;;;;12.68;11.50;;;;;;;23.34;82.60;99969.05;1732377;82;25831;-80
2022/06/09 11:54:04;;;;;;;11.53;10.13;;;;;;;23.47;83.50;99957.47;1731929;81;27457;-80
2022/06/09 11:56:43;;;;;;;11.33;10.23;;;;;;;23.70;83.58;99956.70;1746372;81;25545;-81
2022/06/09 11:59:20;;;;;;;11.40;10.28;;;;;;;23.89;82.45;99952.67;1731615;81;25890;-81
2022/06/09 12:02:10;;;;;;;11.05;9.98;;;;;;;24.04;81.31;99953.05;1685487;83;25797;-80